KGTR/GTR METAR and TAF weather

Enter ICAO airport designator
Station Type Date Time Source
KGTR METAR 2019/08/25 02:56 UTC NOAA

KGTR 250256Z AUTO 00000KT 10SM CLR 23/23 A3000 RMK AO2 SLP163 6//// T02330228 50004 PNO $


Station Type Date Time Source
KGTR Decoded METAR 2019/08/25 02:56 UTC NOAA

Station name not available
Aug 24, 2019 - 10:56 PM EDT / 2019.08.25 0256 UTC
Wind: Calm:0
Visibility: 10 mile(s):0
Sky conditions: clear
Temperature: 73.9 F (23.3 C)
Dew Point: 73.0 F (22.8 C)
Relative Humidity: 97%
Pressure (altimeter): 30 in. Hg (1015 hPa)
Pressure tendency: 0.01 inches (0.4 hPa) higher than three hours ago
ob: KGTR 250256Z AUTO 00000KT 10SM CLR 23/23 A3000 RMK AO2 SLP163 6//// T02330228 50004 PNO
cycle: 3

Station Type Date Time Source
KGTR TAF 2019/08/24 21:42 UTC NOAA

TAF
AMD KGTR 242041Z 2421/2518 16003KT P6SM -TSRA BKN035CB
TEMPO 2421/2423 2SM +TSRA
FM250400 14002KT P6SM FEW025 SCT040 BKN100

Example: see airport list